Paris, Pennsylvania
Current Conditions -  °F | °C
As of 12:51 AM on Friday 19 Dec 2014 (Local Time) from KPIT Reporting Station
Overcast Overcast  
Wind Chill: 17°   Ceiling: 1300
Heat Index: 27°   Visibility: 9mi
Dew Point: 22°   Wind: 10mph
Humidity: 81%   Direction: 250°WSW
Pressure: 30.14"   Gusts: NA
Location:  40.398°N, 80.4369°W
Report Text: KPIT 190551Z 25009KT 9SM BKN013 OVC022 M03/M06 A3014 RMK AO2 SLP227 60000 T10281056 11022 21028 50001
Loading
Personal Weather Stations






























Interactive Weather Map New forecast layout! Learn more

10-Day Weather Forecast

Advertisements
Track Severe Weather on mobile